createdAt,value
2023-04-15T00:00:32.494Z,5.08
2023-04-15T00:03:35.918Z,4.97
2023-04-15T00:06:40.054Z,4.89
2023-04-15T00:09:43.255Z,5.01
2023-04-15T00:12:46.027Z,5.06
2023-04-15T00:15:48.919Z,5.04
2023-04-15T00:18:52.122Z,4.99
2023-04-15T00:21:54.704Z,5.00
2023-04-15T00:24:57.569Z,5.08
2023-04-15T00:28:00.200Z,4.98
2023-04-15T00:31:03.076Z,4.90
2023-04-15T00:34:05.886Z,4.98
2023-04-15T00:37:10.404Z,4.83
2023-04-15T00:40:14.131Z,4.85
2023-04-15T00:43:19.826Z,4.83
2023-04-15T00:46:23.095Z,4.87
2023-04-15T00:49:26.198Z,4.86
2023-04-15T00:52:28.782Z,4.88
2023-04-15T00:55:31.772Z,4.83
2023-04-15T00:58:34.503Z,4.86
2023-04-15T01:01:37.692Z,4.91
2023-04-15T01:04:40.711Z,4.92
2023-04-15T01:07:43.813Z,4.96
2023-04-15T01:10:46.730Z,5.01
2023-04-15T01:13:49.414Z,4.92
2023-04-15T01:16:53.340Z,4.97
2023-04-15T01:19:59.130Z,4.99
2023-04-15T01:23:02.319Z,5.06
2023-04-15T01:26:06.502Z,5.15
2023-04-15T01:29:09.180Z,5.28
2023-04-15T01:32:12.328Z,5.34
2023-04-15T01:35:15.152Z,5.33
2023-04-15T01:38:18.448Z,5.24
2023-04-15T01:41:28.227Z,5.34
2023-04-15T01:44:31.025Z,5.09
2023-04-15T01:47:33.883Z,5.19
2023-04-15T01:50:38.441Z,5.28
2023-04-15T01:53:41.325Z,5.25
2023-04-15T01:56:44.710Z,5.16
2023-04-15T01:59:47.683Z,5.14
2023-04-15T02:02:51.605Z,5.20
2023-04-15T02:05:54.428Z,5.10
2023-04-15T02:08:57.170Z,4.91
2023-04-15T02:12:01.049Z,4.85
2023-04-15T02:15:05.620Z,4.54
2023-04-15T02:18:08.431Z,4.69
2023-04-15T02:21:12.000Z,4.79
2023-04-15T02:24:14.584Z,4.89
2023-04-15T02:27:18.582Z,4.71
2023-04-15T02:30:21.664Z,4.72
2023-04-15T02:33:25.097Z,4.90
2023-04-15T02:36:28.064Z,4.96
2023-04-15T02:39:30.637Z,5.01
2023-04-15T02:42:33.324Z,5.07
2023-04-15T02:45:37.920Z,5.16
2023-04-15T02:48:42.035Z,4.86
2023-04-15T02:51:49.696Z,5.06
2023-04-15T02:54:52.697Z,5.09
2023-04-15T02:57:56.622Z,5.09
2023-04-15T03:00:59.243Z,5.16
2023-04-15T03:04:02.349Z,5.22
2023-04-15T03:07:05.205Z,5.22
2023-04-15T03:10:09.105Z,5.15
2023-04-15T03:13:11.955Z,5.26
2023-04-15T03:16:16.686Z,5.16
2023-04-15T03:19:19.483Z,5.02
2023-04-15T03:22:22.290Z,5.02
2023-04-15T03:25:25.336Z,5.04
2023-04-15T03:28:29.884Z,5.18
2023-04-15T03:31:33.953Z,5.21
2023-04-15T03:34:37.727Z,5.12
2023-04-15T03:37:40.492Z,5.16
2023-04-15T03:40:43.716Z,5.24
2023-04-15T03:43:46.409Z,5.10
2023-04-15T03:46:49.311Z,5.11
2023-04-15T03:49:52.104Z,5.21
2023-04-15T03:52:54.690Z,5.25
2023-04-15T03:55:57.643Z,5.24
2023-04-15T03:59:00.495Z,5.22
2023-04-15T04:02:03.410Z,5.31
2023-04-15T04:05:06.314Z,5.20
2023-04-15T04:08:08.969Z,5.32
2023-04-15T04:11:11.698Z,5.38
2023-04-15T04:14:14.309Z,5.38
2023-04-15T04:17:16.986Z,5.44
2023-04-15T04:20:19.849Z,5.56
2023-04-15T04:23:22.469Z,5.60
2023-04-15T04:26:25.138Z,5.58
2023-04-15T04:29:27.828Z,5.61
2023-04-15T04:32:30.609Z,5.68
2023-04-15T04:35:35.285Z,5.63
2023-04-15T04:38:37.925Z,5.90
2023-04-15T04:41:40.797Z,5.79
2023-04-15T04:44:43.524Z,5.80
2023-04-15T04:47:47.201Z,5.83
2023-04-15T04:50:50.024Z,5.75
2023-04-15T04:53:52.810Z,5.72
2023-04-15T04:56:55.953Z,5.92
2023-04-15T04:59:58.570Z,6.02
2023-04-15T05:03:01.551Z,6.10
2023-04-15T05:06:06.839Z,6.18
2023-04-15T05:09:09.620Z,6.19
2023-04-15T05:12:15.592Z,6.25
2023-04-15T05:15:18.169Z,6.27
2023-04-15T05:18:21.299Z,6.22
2023-04-15T05:21:24.079Z,6.38
2023-04-15T05:24:26.909Z,6.43
2023-04-15T05:27:29.702Z,6.35
2023-04-15T05:30:32.446Z,6.36
2023-04-15T05:33:35.230Z,6.41
2023-04-15T05:36:38.338Z,6.47
2023-04-15T05:39:40.986Z,6.41
2023-04-15T05:42:44.170Z,6.46
2023-04-15T05:45:47.007Z,6.48
2023-04-15T05:48:49.984Z,6.41
2023-04-15T05:51:52.899Z,6.38
2023-04-15T05:54:55.640Z,6.50
2023-04-15T05:57:58.349Z,6.59
2023-04-15T06:01:01.480Z,6.61
2023-04-15T06:04:04.395Z,6.65
2023-04-15T06:07:07.565Z,6.61
2023-04-15T06:10:11.372Z,6.70
2023-04-15T06:13:14.185Z,6.69
2023-04-15T06:16:16.949Z,6.79
2023-04-15T06:19:19.932Z,6.75
2023-04-15T06:22:23.548Z,6.82
2023-04-15T06:25:26.545Z,6.85
2023-04-15T06:28:29.367Z,6.82
2023-04-15T06:31:32.194Z,6.80
2023-04-15T06:34:35.096Z,6.71
2023-04-15T06:37:37.789Z,6.73
2023-04-15T06:40:40.687Z,6.83
2023-04-15T06:43:43.680Z,6.77
2023-04-15T06:46:46.568Z,6.82
2023-04-15T06:49:49.345Z,6.86
2023-04-15T06:52:52.405Z,6.88
2023-04-15T06:55:55.330Z,6.94
2023-04-15T06:58:58.316Z,7.16
2023-04-15T07:02:01.807Z,7.27
2023-04-15T07:05:07.256Z,7.38
2023-04-15T07:08:10.245Z,7.45
2023-04-15T07:11:13.386Z,7.52
2023-04-15T07:14:16.304Z,7.53
2023-04-15T07:17:19.336Z,7.38
2023-04-15T07:20:22.162Z,7.36
2023-04-15T07:23:25.142Z,7.41
2023-04-15T07:26:28.150Z,7.42
2023-04-15T07:29:31.013Z,7.46
2023-04-15T07:32:33.926Z,7.40
2023-04-15T07:35:36.628Z,7.48
2023-04-15T07:38:40.715Z,7.51
2023-04-15T07:41:43.858Z,7.58
2023-04-15T07:44:46.917Z,7.42
2023-04-15T07:47:52.807Z,7.28
2023-04-15T07:50:55.653Z,7.32
2023-04-15T07:53:58.540Z,7.28
2023-04-15T07:57:01.874Z,7.16
2023-04-15T08:00:06.052Z,7.26
2023-04-15T08:03:15.912Z,7.22
2023-04-15T08:06:19.061Z,7.23
2023-04-15T08:09:21.945Z,7.25
2023-04-15T08:12:24.745Z,7.30
2023-04-15T08:15:28.785Z,7.43
2023-04-15T08:18:31.862Z,7.53
2023-04-15T08:21:35.006Z,7.73
2023-04-15T08:24:37.988Z,7.82
2023-04-15T08:27:42.398Z,8.06
2023-04-15T08:30:45.211Z,8.02
2023-04-15T08:33:48.281Z,8.28
2023-04-15T08:36:51.547Z,8.39
2023-04-15T08:39:54.311Z,8.45
2023-04-15T08:42:58.204Z,8.38
2023-04-15T08:46:02.102Z,8.75
2023-04-15T08:49:05.729Z,8.86
2023-04-15T08:52:09.791Z,9.11
2023-04-15T08:55:14.252Z,8.81
2023-04-15T08:58:17.369Z,9.04
2023-04-15T09:01:20.812Z,8.84
2023-04-15T09:04:23.739Z,8.91
2023-04-15T09:07:27.565Z,9.01
2023-04-15T09:10:31.381Z,8.98
2023-04-15T09:13:34.241Z,8.99
2023-04-15T09:16:57.149Z,8.75
2023-04-15T09:20:17.105Z,8.68
2023-04-15T09:23:20.164Z,8.58
2023-04-15T09:26:40.803Z,8.66
2023-04-15T09:29:43.458Z,8.92
2023-04-15T09:32:54.124Z,8.91
2023-04-15T09:36:06.821Z,9.10
2023-04-15T09:39:09.704Z,9.35
2023-04-15T09:42:12.496Z,9.76
2023-04-15T09:45:15.268Z,9.93
2023-04-15T09:48:23.131Z,10.24
2023-04-15T09:51:35.723Z,10.16
2023-04-15T09:54:39.259Z,10.43
2023-04-15T09:57:42.213Z,10.32
2023-04-15T10:00:45.280Z,10.01
2023-04-15T10:03:48.493Z,10.13
2023-04-15T10:06:51.753Z,10.07
2023-04-15T10:09:55.099Z,9.78
2023-04-15T10:12:58.046Z,9.82
2023-04-15T10:19:20.841Z,9.80
2023-04-15T10:22:24.155Z,9.85
2023-04-15T10:25:27.608Z,9.70
2023-04-15T10:28:30.401Z,9.86
2023-04-15T10:31:33.539Z,10.07
2023-04-15T10:34:36.458Z,10.07
2023-04-15T10:37:39.726Z,9.97
2023-04-15T10:40:42.757Z,10.10
2023-04-15T10:44:03.655Z,10.22
2023-04-15T10:47:15.032Z,10.49
2023-04-15T10:50:19.613Z,10.83
2023-04-15T10:53:32.488Z,11.10
2023-04-15T10:56:35.347Z,11.34
2023-04-15T10:59:59.747Z,11.34
2023-04-15T11:03:08.468Z,11.10
2023-04-15T11:06:11.651Z,10.71
2023-04-15T11:09:34.546Z,10.99
2023-04-15T11:12:38.069Z,11.08
2023-04-15T11:15:48.358Z,11.07
2023-04-15T11:18:57.318Z,10.80
2023-04-15T11:22:10.284Z,10.82
2023-04-15T11:25:26.298Z,11.05
2023-04-15T11:28:30.764Z,11.13
2023-04-15T11:31:33.860Z,11.23
2023-04-15T11:34:36.973Z,11.68
2023-04-15T11:37:39.889Z,11.98
2023-04-15T11:40:46.216Z,11.85
2023-04-15T11:43:50.982Z,12.34
2023-04-15T11:46:55.818Z,12.48
2023-04-15T11:49:58.541Z,12.71
2023-04-15T11:53:04.787Z,11.96
2023-04-15T11:56:11.965Z,11.80
2023-04-15T11:59:14.715Z,11.75
2023-04-15T12:02:17.831Z,12.14
2023-04-15T12:05:21.056Z,12.36
2023-04-15T12:08:24.026Z,11.98
2023-04-15T12:11:27.040Z,12.08
2023-04-15T12:14:33.783Z,11.97
2023-04-15T12:17:52.023Z,12.22
2023-04-15T12:20:55.048Z,12.31
2023-04-15T12:23:58.839Z,12.28
2023-04-15T12:27:05.988Z,12.50
2023-04-15T12:30:09.636Z,12.34
2023-04-15T12:33:12.511Z,12.64
2023-04-15T12:36:15.398Z,12.49
2023-04-15T12:39:18.331Z,12.05
2023-04-15T12:42:23.194Z,12.03
2023-04-15T12:45:27.880Z,11.57
2023-04-15T12:48:32.193Z,11.79
2023-04-15T12:51:37.970Z,12.23
2023-04-15T12:54:41.046Z,12.72
2023-04-15T12:57:45.982Z,12.77
2023-04-15T13:00:50.122Z,12.73
2023-04-15T13:03:53.236Z,12.67
2023-04-15T13:06:56.727Z,12.35
2023-04-15T13:09:59.706Z,12.48
2023-04-15T13:13:03.649Z,12.39
2023-04-15T13:16:06.979Z,12.07
2023-04-15T13:19:09.989Z,11.90
2023-04-15T13:22:13.058Z,11.69
2023-04-15T13:25:16.057Z,11.26
2023-04-15T13:28:18.867Z,10.51
2023-04-15T13:31:21.950Z,10.23
2023-04-15T13:34:24.813Z,9.77
2023-04-15T13:37:28.748Z,9.71
2023-04-15T13:40:32.058Z,9.74
2023-04-15T13:43:34.907Z,9.52
2023-04-15T13:46:39.930Z,9.72
2023-04-15T13:49:42.768Z,9.80
2023-04-15T13:52:45.737Z,9.96
2023-04-15T13:55:48.860Z,10.05
2023-04-15T13:58:53.303Z,10.34
2023-04-15T14:01:56.593Z,10.68
2023-04-15T14:04:59.448Z,11.23
2023-04-15T14:08:02.543Z,11.74
2023-04-15T14:11:05.592Z,11.82
2023-04-15T14:14:08.507Z,12.13
2023-04-15T14:17:11.536Z,12.34
2023-04-15T14:20:16.824Z,12.29
2023-04-15T14:23:20.359Z,12.09
2023-04-15T14:26:23.544Z,12.05
2023-04-15T14:29:26.748Z,11.82
2023-04-15T14:32:29.814Z,11.86
2023-04-15T14:35:33.296Z,11.83
2023-04-15T14:38:40.755Z,11.75
2023-04-15T14:41:43.875Z,11.78
2023-04-15T14:44:46.926Z,11.67
2023-04-15T14:47:49.768Z,11.72
2023-04-15T14:50:53.186Z,11.67
2023-04-15T14:53:56.050Z,11.56
2023-04-15T14:56:58.898Z,11.39
2023-04-15T15:00:02.126Z,11.18
2023-04-15T15:03:06.997Z,11.17
2023-04-15T15:06:09.788Z,11.19
2023-04-15T15:09:12.533Z,11.26
2023-04-15T15:12:15.447Z,11.38
2023-04-15T15:15:28.460Z,11.66
2023-04-15T15:18:31.839Z,11.70
2023-04-15T15:21:35.195Z,11.66
2023-04-15T15:24:37.855Z,11.59
2023-04-15T15:27:41.000Z,11.57
2023-04-15T15:30:43.751Z,11.41
2023-04-15T15:33:46.708Z,11.40
2023-04-15T15:36:49.517Z,11.31
2023-04-15T15:39:53.273Z,11.29
2023-04-15T15:42:56.065Z,11.34
2023-04-15T15:45:59.079Z,11.39
2023-04-15T15:49:04.103Z,11.38
2023-04-15T15:52:07.402Z,11.31
2023-04-15T15:55:10.770Z,11.10
2023-04-15T15:58:13.579Z,11.07
2023-04-15T16:01:16.815Z,10.93
2023-04-15T16:04:19.840Z,10.86
2023-04-15T16:07:22.858Z,10.86
2023-04-15T16:10:28.041Z,10.96
2023-04-15T16:13:31.110Z,10.98
2023-04-15T16:16:34.106Z,10.88
2023-04-15T16:19:36.962Z,10.92
2023-04-15T16:22:39.843Z,10.88
2023-04-15T16:25:44.280Z,10.83
2023-04-15T16:28:47.253Z,10.71
2023-04-15T16:31:50.212Z,10.66
2023-04-15T16:34:53.417Z,10.69
2023-04-15T16:37:56.215Z,10.72
2023-04-15T16:41:00.718Z,10.54
2023-04-15T16:44:03.707Z,10.33
2023-04-15T16:47:06.795Z,10.05
2023-04-15T16:50:14.364Z,9.38
2023-04-15T16:53:19.574Z,9.08
2023-04-15T16:56:22.476Z,9.04
2023-04-15T16:59:26.204Z,8.86
2023-04-15T17:02:30.105Z,8.96
2023-04-15T17:05:33.140Z,8.74
2023-04-15T17:08:35.884Z,8.67
2023-04-15T17:11:40.875Z,8.76
2023-04-15T17:14:43.568Z,8.70
2023-04-15T17:17:46.346Z,8.55
2023-04-15T17:20:49.409Z,8.58
2023-04-15T17:23:52.470Z,8.64
2023-04-15T17:26:55.447Z,8.67
2023-04-15T17:29:58.236Z,8.89
2023-04-15T17:33:01.834Z,8.71
2023-04-15T17:36:05.253Z,8.82
2023-04-15T17:39:08.322Z,8.94
2023-04-15T17:42:11.891Z,8.82
2023-04-15T17:45:15.610Z,8.74
2023-04-15T17:48:18.474Z,8.73
2023-04-15T17:51:22.135Z,8.65
2023-04-15T17:54:25.129Z,8.52
2023-04-15T17:57:28.025Z,8.46
2023-04-15T18:00:30.926Z,8.41
2023-04-15T18:03:33.796Z,8.44
2023-04-15T18:06:36.828Z,8.37
2023-04-15T18:09:39.960Z,8.32
2023-04-15T18:12:42.919Z,8.21
2023-04-15T18:15:47.395Z,8.24
2023-04-15T18:18:50.774Z,8.13
2023-04-15T18:21:53.817Z,8.13
2023-04-15T18:24:59.411Z,7.93
2023-04-15T18:28:02.617Z,7.64
2023-04-15T18:31:05.884Z,7.78
2023-04-15T18:34:09.208Z,7.88
2023-04-15T18:37:12.129Z,7.91
2023-04-15T18:40:16.487Z,7.93
2023-04-15T18:43:19.507Z,7.80
2023-04-15T18:46:22.621Z,7.63
2023-04-15T18:49:27.555Z,7.65
2023-04-15T18:52:30.975Z,7.64
2023-04-15T18:55:33.734Z,7.63
2023-04-15T18:59:09.412Z,7.66
2023-04-15T19:02:07.039Z,7.58
2023-04-15T19:05:10.204Z,7.55
2023-04-15T19:08:13.117Z,7.53
2023-04-15T19:11:16.258Z,7.56
2023-04-15T19:14:19.318Z,7.54
2023-04-15T19:17:22.697Z,7.54
2023-04-15T19:20:25.740Z,7.51
2023-04-15T19:23:28.609Z,7.43
2023-04-15T19:26:31.831Z,7.36
2023-04-15T19:29:34.651Z,7.33
2023-04-15T19:32:37.820Z,7.31
2023-04-15T19:35:41.366Z,7.26
2023-04-15T19:38:44.658Z,7.20
2023-04-15T19:41:47.784Z,7.21
2023-04-15T19:44:51.101Z,7.18
2023-04-15T19:47:54.504Z,7.20
2023-04-15T19:50:59.223Z,7.21
2023-04-15T19:54:02.465Z,7.31
2023-04-15T19:57:07.724Z,7.29
2023-04-15T20:00:11.377Z,7.28
2023-04-15T20:03:14.610Z,7.25
2023-04-15T20:06:17.621Z,7.26
2023-04-15T20:09:20.411Z,7.28
2023-04-15T20:12:51.038Z,7.28
2023-04-15T20:15:45.930Z,7.31
2023-04-15T20:18:49.080Z,7.37
2023-04-15T20:21:52.692Z,7.31
2023-04-15T20:24:56.249Z,7.36
2023-04-15T20:28:00.961Z,7.31
2023-04-15T20:31:04.495Z,7.30
2023-04-15T20:34:09.960Z,7.31
2023-04-15T20:37:14.182Z,7.31
2023-04-15T20:40:16.940Z,7.20
2023-04-15T20:43:21.948Z,7.11
2023-04-15T20:46:27.363Z,7.14
2023-04-15T20:49:36.568Z,7.19
2023-04-15T20:52:40.096Z,7.17
2023-04-15T20:55:46.332Z,7.16
2023-04-15T20:58:50.546Z,7.17
2023-04-15T21:01:53.950Z,7.21
2023-04-15T21:04:59.568Z,7.24
2023-04-15T21:08:02.574Z,7.26
2023-04-15T21:11:05.494Z,7.29
2023-04-15T21:14:08.963Z,7.30
2023-04-15T21:17:11.887Z,7.28
2023-04-15T21:20:14.824Z,7.30
2023-04-15T21:23:17.997Z,7.35
2023-04-15T21:26:20.861Z,7.35
2023-04-15T21:29:24.313Z,7.41
2023-04-15T21:32:27.177Z,7.46
2023-04-15T21:35:30.796Z,7.54
2023-04-15T21:38:34.835Z,7.55
2023-04-15T21:41:38.101Z,7.56
2023-04-15T21:44:41.047Z,7.59
2023-04-15T21:48:06.211Z,7.59
2023-04-15T21:51:06.819Z,7.61
2023-04-15T21:54:09.638Z,7.57
2023-04-15T21:57:12.359Z,7.58
2023-04-15T22:00:16.017Z,7.57
2023-04-15T22:03:19.042Z,7.58
2023-04-15T22:06:22.034Z,7.63
2023-04-15T22:09:24.790Z,7.64
2023-04-15T22:12:27.576Z,7.56
2023-04-15T22:15:32.644Z,7.52
2023-04-15T22:18:35.593Z,7.53
2023-04-15T22:21:38.555Z,7.57
2023-04-15T22:24:41.628Z,7.60
2023-04-15T22:27:44.290Z,7.59
2023-04-15T22:30:47.117Z,7.59
2023-04-15T22:33:49.845Z,7.58
2023-04-15T22:36:52.848Z,7.57
2023-04-15T22:39:55.832Z,7.54
2023-04-15T22:42:58.666Z,7.41
2023-04-15T22:46:01.779Z,7.25
2023-04-15T22:49:08.840Z,7.32
2023-04-15T22:52:17.213Z,7.28
2023-04-15T22:55:26.628Z,7.13
2023-04-15T22:58:32.433Z,7.13
2023-04-15T23:01:35.453Z,7.10
2023-04-15T23:04:38.398Z,7.12
2023-04-15T23:07:41.377Z,7.17
2023-04-15T23:10:44.954Z,7.27
2023-04-15T23:13:47.711Z,7.23
2023-04-15T23:16:50.631Z,7.23
2023-04-15T23:19:53.764Z,7.19
2023-04-15T23:22:56.359Z,7.20
2023-04-15T23:25:59.520Z,7.23
2023-04-15T23:29:02.359Z,7.30
2023-04-15T23:32:05.292Z,7.31
2023-04-15T23:35:08.455Z,7.39
2023-04-15T23:38:11.271Z,7.42
2023-04-15T23:41:14.271Z,7.39
2023-04-15T23:44:16.907Z,7.33
2023-04-15T23:47:19.725Z,7.33
2023-04-15T23:50:22.448Z,7.34
2023-04-15T23:53:26.470Z,7.32
2023-04-15T23:56:29.273Z,7.30
2023-04-15T23:59:32.053Z,7.30
